createdAt,value
2018-12-14T00:02:25.383Z,21.17
2018-12-14T00:04:53.654Z,20.37
2018-12-14T00:07:21.922Z,21.40
2018-12-14T00:09:50.312Z,20.13
2018-12-14T00:12:18.710Z,16.67
2018-12-14T00:14:47.191Z,18.03
2018-12-14T00:17:18.063Z,17.30
2018-12-14T00:19:46.345Z,16.77
2018-12-14T00:22:14.623Z,18.10
2018-12-14T00:24:42.902Z,17.50
2018-12-14T00:27:11.182Z,21.50
2018-12-14T00:29:39.743Z,20.13
2018-12-14T00:32:15.073Z,18.27
2018-12-14T00:34:43.371Z,20.97
2018-12-14T00:37:11.664Z,20.63
2018-12-14T00:39:39.974Z,20.10
2018-12-14T00:42:08.320Z,20.03
2018-12-14T00:44:36.743Z,16.50
2018-12-14T00:47:05.090Z,18.37
2018-12-14T00:49:33.390Z,19.43
2018-12-14T00:52:01.741Z,20.03
2018-12-14T00:54:30.110Z,18.07
2018-12-14T00:56:58.456Z,20.10
2018-12-14T00:59:27.113Z,19.20
2018-12-14T01:02:02.117Z,15.10
2018-12-14T01:04:30.582Z,17.17
2018-12-14T01:06:58.854Z,20.53
2018-12-14T01:09:27.338Z,15.10
2018-12-14T01:11:58.299Z,17.40
2018-12-14T01:14:26.172Z,18.40
2018-12-14T01:16:54.445Z,16.17
2018-12-14T01:19:22.751Z,15.83
2018-12-14T01:21:51.022Z,18.63
2018-12-14T01:24:19.303Z,19.40
2018-12-14T01:26:47.578Z,16.53
2018-12-14T01:29:15.863Z,21.77
2018-12-14T01:31:44.141Z,18.03
2018-12-14T01:34:12.436Z,21.23
2018-12-14T01:36:40.798Z,23.90
2018-12-14T01:39:09.289Z,17.93
2018-12-14T01:41:37.554Z,21.30
2018-12-14T01:44:05.827Z,18.87
2018-12-14T01:46:34.175Z,17.47
2018-12-14T01:49:02.556Z,19.37
2018-12-14T01:51:31.395Z,15.87
2018-12-14T01:53:59.762Z,16.40
2018-12-14T01:56:28.142Z,16.47
2018-12-14T01:58:56.487Z,17.37
2018-12-14T02:01:24.855Z,16.90
2018-12-14T02:03:53.125Z,21.37
2018-12-14T02:06:21.400Z,19.60
2018-12-14T02:08:49.682Z,17.73
2018-12-14T02:11:18.212Z,18.07
2018-12-14T02:13:46.592Z,21.10
2018-12-14T02:16:14.877Z,22.13
2018-12-14T02:18:43.146Z,16.70
2018-12-14T02:21:11.430Z,15.87
2018-12-14T02:23:39.790Z,19.50
2018-12-14T02:26:08.296Z,19.57
2018-12-14T02:28:36.604Z,20.73
2018-12-14T02:31:04.992Z,17.30
2018-12-14T02:33:33.397Z,21.37
2018-12-14T02:36:01.694Z,19.63
2018-12-14T02:38:29.982Z,17.60
2018-12-14T02:40:58.289Z,19.10
2018-12-14T02:43:26.764Z,16.63
2018-12-14T02:45:55.167Z,20.60
2018-12-14T02:48:23.418Z,19.37
2018-12-14T02:50:51.701Z,18.93
2018-12-14T02:53:19.992Z,16.23
2018-12-14T02:55:48.368Z,15.60
2018-12-14T02:58:16.638Z,17.00
2018-12-14T03:00:44.915Z,16.47
2018-12-14T03:03:13.180Z,15.13
2018-12-14T03:05:41.467Z,17.53
2018-12-14T03:08:09.860Z,18.63
2018-12-14T03:10:38.147Z,19.03
2018-12-14T03:13:06.404Z,22.00
2018-12-14T03:15:34.750Z,17.30
2018-12-14T03:18:03.010Z,17.43
2018-12-14T03:20:31.302Z,16.63
2018-12-14T03:22:59.567Z,16.73
2018-12-14T03:25:27.933Z,18.03
2018-12-14T03:27:56.250Z,18.97
2018-12-14T03:30:24.531Z,18.27
2018-12-14T03:32:52.910Z,20.93
2018-12-14T03:35:21.178Z,17.40
2018-12-14T03:37:49.455Z,18.27
2018-12-14T03:40:17.734Z,18.97
2018-12-14T03:42:45.978Z,20.50
2018-12-14T03:45:14.249Z,17.80
2018-12-14T03:47:42.502Z,18.67
2018-12-14T03:50:10.892Z,18.83
2018-12-14T03:52:39.188Z,17.57
2018-12-14T03:55:07.609Z,13.90
2018-12-14T03:57:35.891Z,17.40
2018-12-14T04:00:05.273Z,14.50
2018-12-14T04:02:33.533Z,17.97
2018-12-14T04:05:01.859Z,13.43
2018-12-14T04:07:30.111Z,17.83
2018-12-14T04:09:58.396Z,20.17
2018-12-14T04:12:26.775Z,19.03
2018-12-14T04:15:13.818Z,18.07
2018-12-14T04:17:46.086Z,16.53
2018-12-14T04:20:19.573Z,19.27
2018-12-14T04:22:51.811Z,17.90
2018-12-14T04:25:25.223Z,18.20
2018-12-14T04:27:54.513Z,17.60
2018-12-14T04:30:22.775Z,18.70
2018-12-14T04:32:51.022Z,16.67
2018-12-14T04:35:19.292Z,16.87
2018-12-14T04:37:47.560Z,17.43
2018-12-14T04:40:15.839Z,19.97
2018-12-14T04:42:48.742Z,17.27
2018-12-14T04:45:14.471Z,18.30
2018-12-14T04:47:42.750Z,18.70
2018-12-14T04:50:11.011Z,19.53
2018-12-14T04:52:39.426Z,18.13
2018-12-14T04:55:07.721Z,15.07
2018-12-14T04:57:36.027Z,18.07
2018-12-14T05:00:05.296Z,15.70
2018-12-14T05:02:33.558Z,17.60
2018-12-14T05:05:01.861Z,20.70
2018-12-14T05:07:30.172Z,20.40
2018-12-14T05:09:58.523Z,22.17
2018-12-14T05:12:26.812Z,22.97
2018-12-14T05:14:55.070Z,19.33
2018-12-14T05:17:23.346Z,17.43
2018-12-14T05:19:51.617Z,19.50
2018-12-14T05:22:19.908Z,24.33
2018-12-14T05:24:48.172Z,18.87
2018-12-14T05:27:16.449Z,19.00
2018-12-14T05:29:44.802Z,18.10
2018-12-14T05:32:13.110Z,13.53
2018-12-14T05:34:41.389Z,16.93
2018-12-14T05:37:09.799Z,17.03
2018-12-14T05:39:38.093Z,20.13
2018-12-14T05:42:06.372Z,18.00
2018-12-14T05:44:34.646Z,17.00
2018-12-14T05:47:03.050Z,18.43
2018-12-14T05:49:31.329Z,15.87
2018-12-14T05:51:59.639Z,18.30
2018-12-14T05:54:27.981Z,17.73
2018-12-14T05:56:56.568Z,16.93
2018-12-14T05:59:24.930Z,14.27
2018-12-14T06:01:53.216Z,16.40
2018-12-14T06:04:21.476Z,17.53
2018-12-14T06:06:49.889Z,18.20
2018-12-14T06:09:18.246Z,17.00
2018-12-14T06:11:46.565Z,18.63
2018-12-14T06:14:14.906Z,18.40
2018-12-14T06:16:43.184Z,21.80
2018-12-14T06:19:11.503Z,20.90
2018-12-14T06:21:39.977Z,21.73
2018-12-14T06:24:08.418Z,18.33
2018-12-14T06:26:36.752Z,17.93
2018-12-14T06:29:05.190Z,17.33
2018-12-14T06:31:33.504Z,16.63
2018-12-14T06:34:01.844Z,18.40
2018-12-14T06:36:30.795Z,17.90
2018-12-14T06:38:59.224Z,18.37
2018-12-14T06:41:27.509Z,20.20
2018-12-14T06:43:55.889Z,17.80
2018-12-14T06:46:24.263Z,21.53
2018-12-14T06:48:52.764Z,21.60
2018-12-14T06:51:21.414Z,18.80
2018-12-14T06:53:49.821Z,22.33
2018-12-14T06:56:18.195Z,19.77
2018-12-14T06:58:46.684Z,19.23
2018-12-14T07:01:15.042Z,20.93
2018-12-14T07:03:43.350Z,19.30
2018-12-14T07:06:11.877Z,22.67
2018-12-14T07:08:40.189Z,19.20
2018-12-14T07:11:08.884Z,21.67
2018-12-14T07:13:37.246Z,23.30
2018-12-14T07:16:05.630Z,19.63
2018-12-14T07:18:34.094Z,18.63
2018-12-14T07:21:03.384Z,18.83
2018-12-14T07:23:31.687Z,20.53
2018-12-14T07:26:00.065Z,19.47
2018-12-14T07:28:28.474Z,20.43
2018-12-14T07:30:56.852Z,23.70
2018-12-14T07:33:25.278Z,21.87
2018-12-14T07:35:53.567Z,24.00
2018-12-14T07:38:28.749Z,23.63
2018-12-14T07:40:57.081Z,25.27
2018-12-14T07:43:28.278Z,25.03
2018-12-14T07:45:55.802Z,24.13
2018-12-14T07:48:24.315Z,22.00
2018-12-14T07:50:52.747Z,19.13
2018-12-14T07:53:21.039Z,25.30
2018-12-14T07:55:49.454Z,22.13
2018-12-14T07:58:17.786Z,33.97
2018-12-14T08:00:46.277Z,24.70
2018-12-14T08:03:16.093Z,19.30
2018-12-14T08:05:44.589Z,21.83
2018-12-14T08:08:12.943Z,23.03
2018-12-14T08:10:41.377Z,22.43
2018-12-14T08:13:09.910Z,19.43
2018-12-14T08:15:38.233Z,19.10
2018-12-14T08:18:06.688Z,20.67
2018-12-14T08:20:35.043Z,19.53
2018-12-14T08:23:03.375Z,17.47
2018-12-14T08:25:31.770Z,21.57
2018-12-14T08:28:00.192Z,19.47
2018-12-14T08:30:28.699Z,17.67
2018-12-14T08:32:57.061Z,18.83
2018-12-14T08:35:25.419Z,20.87
2018-12-14T08:37:53.742Z,19.40
2018-12-14T08:40:22.096Z,24.37
2018-12-14T08:42:50.541Z,19.13
2018-12-14T08:45:18.845Z,17.30
2018-12-14T08:47:47.612Z,19.67
2018-12-14T08:50:17.288Z,22.27
2018-12-14T08:52:46.405Z,20.87
2018-12-14T08:55:14.742Z,18.83
2018-12-14T08:57:43.036Z,22.13
2018-12-14T09:00:11.362Z,23.13
2018-12-14T09:02:39.630Z,19.50
2018-12-14T09:05:08.335Z,18.60
2018-12-14T09:07:36.594Z,18.07
2018-12-14T09:10:06.237Z,18.13
2018-12-14T09:12:34.489Z,21.27
2018-12-14T09:15:02.778Z,21.83
2018-12-14T09:17:31.054Z,18.87
2018-12-14T09:19:59.490Z,23.30
2018-12-14T09:22:27.829Z,27.23
2018-12-14T09:24:56.183Z,19.37
2018-12-14T09:27:24.538Z,19.00
2018-12-14T09:29:52.824Z,19.50
2018-12-14T09:32:21.118Z,16.73
2018-12-14T09:34:49.636Z,17.70
2018-12-14T09:37:17.950Z,21.47
2018-12-14T09:39:46.195Z,15.77
2018-12-14T09:42:14.472Z,20.83
2018-12-14T09:44:42.748Z,21.37
2018-12-14T09:47:11.035Z,21.63
2018-12-14T09:49:39.332Z,17.87
2018-12-14T09:52:07.873Z,19.67
2018-12-14T09:54:36.235Z,20.43
2018-12-14T09:57:04.613Z,19.53
2018-12-14T09:59:32.994Z,18.07
2018-12-14T10:02:01.330Z,19.20
2018-12-14T10:04:29.638Z,17.90
2018-12-14T10:06:58.029Z,16.87
2018-12-14T10:09:26.384Z,20.93
2018-12-14T10:11:55.313Z,23.27
2018-12-14T10:14:24.013Z,19.67
2018-12-14T10:16:53.446Z,17.03
2018-12-14T10:19:21.743Z,20.47
2018-12-14T10:21:50.047Z,18.03
2018-12-14T10:24:18.427Z,20.00
2018-12-14T10:26:46.683Z,19.87
2018-12-14T10:29:15.050Z,23.13
2018-12-14T10:31:43.357Z,20.40
2018-12-14T10:34:11.740Z,16.40
2018-12-14T10:36:40.166Z,18.47
2018-12-14T10:39:08.697Z,18.37
2018-12-14T10:41:37.076Z,14.20
2018-12-14T10:44:07.579Z,19.60
2018-12-14T10:46:35.786Z,20.30
2018-12-14T10:49:04.291Z,20.20
2018-12-14T10:51:32.910Z,17.83
2018-12-14T10:54:01.218Z,15.13
2018-12-14T10:56:29.703Z,21.87
2018-12-14T10:58:58.074Z,16.40
2018-12-14T11:01:31.674Z,15.90
2018-12-14T11:04:00.073Z,15.83
2018-12-14T11:06:28.465Z,15.30
2018-12-14T11:08:56.929Z,16.20
2018-12-14T11:11:25.278Z,17.20
2018-12-14T11:13:53.679Z,17.27
2018-12-14T11:16:22.092Z,15.80
2018-12-14T11:18:50.417Z,16.43
2018-12-14T11:21:19.015Z,16.17
2018-12-14T11:23:47.391Z,15.87
2018-12-14T11:26:15.760Z,15.03
2018-12-14T11:28:45.077Z,14.27
2018-12-14T11:31:13.455Z,16.10
2018-12-14T11:33:41.850Z,18.43
2018-12-14T11:36:10.351Z,20.33
2018-12-14T11:38:38.780Z,17.77
2018-12-14T11:41:07.325Z,14.50
2018-12-14T11:43:35.647Z,17.60
2018-12-14T11:46:05.021Z,14.87
2018-12-14T11:48:33.404Z,12.43
2018-12-14T11:51:01.878Z,13.83
2018-12-14T11:53:30.179Z,17.93
2018-12-14T11:55:58.445Z,13.83
2018-12-14T11:58:27.331Z,17.50
2018-12-14T12:00:55.974Z,16.77
2018-12-14T12:03:24.294Z,13.03
2018-12-14T12:05:52.607Z,15.50
2018-12-14T12:08:21.076Z,15.83
2018-12-14T12:10:49.389Z,15.37
2018-12-14T12:13:17.785Z,17.63
2018-12-14T12:15:46.342Z,20.00
2018-12-14T12:18:14.673Z,20.53
2018-12-14T12:20:43.083Z,17.37
2018-12-14T12:23:11.527Z,17.63
2018-12-14T12:25:39.945Z,18.80
2018-12-14T12:28:08.319Z,25.83
2018-12-14T12:30:36.715Z,23.07
2018-12-14T12:33:05.005Z,29.57
2018-12-14T12:35:33.275Z,22.90
2018-12-14T12:38:01.567Z,18.30
2018-12-14T12:40:29.845Z,14.77
2018-12-14T12:42:58.117Z,19.93
2018-12-14T12:45:26.488Z,19.53
2018-12-14T12:47:54.792Z,20.63
2018-12-14T12:50:23.074Z,14.60
2018-12-14T12:52:51.378Z,19.63
2018-12-14T12:55:19.639Z,17.23
2018-12-14T12:57:48.013Z,18.50
2018-12-14T13:00:16.271Z,15.47
2018-12-14T13:02:44.534Z,14.87
2018-12-14T13:05:12.904Z,21.53
2018-12-14T13:07:41.162Z,20.77
2018-12-14T13:10:09.773Z,21.27
2018-12-14T13:12:38.057Z,20.40
2018-12-14T13:15:06.936Z,21.90
2018-12-14T13:17:35.190Z,20.17
2018-12-14T13:20:04.940Z,21.83
2018-12-14T13:22:33.291Z,18.10
2018-12-14T13:25:03.001Z,12.70
2018-12-14T13:27:31.372Z,17.60
2018-12-14T13:29:59.709Z,20.57
2018-12-14T13:32:28.052Z,30.00
2018-12-14T13:34:56.383Z,22.27
2018-12-14T13:37:24.884Z,17.17
2018-12-14T13:39:53.302Z,22.20
2018-12-14T13:42:21.738Z,18.10
2018-12-14T13:44:53.177Z,22.60
2018-12-14T13:47:21.729Z,16.63
2018-12-14T13:49:50.226Z,18.77
2018-12-14T13:52:18.547Z,19.63
2018-12-14T13:54:47.652Z,19.70
2018-12-14T13:57:17.129Z,18.37
2018-12-14T13:59:45.429Z,21.37
2018-12-14T14:02:14.521Z,20.43
2018-12-14T14:04:42.867Z,18.57
2018-12-14T14:07:11.164Z,17.73
2018-12-14T14:09:41.797Z,17.37
2018-12-14T14:12:10.363Z,20.53
2018-12-14T14:14:38.689Z,19.73
2018-12-14T14:17:08.336Z,20.33
2018-12-14T14:19:36.618Z,20.87
2018-12-14T14:22:04.913Z,17.10
2018-12-14T14:24:33.310Z,17.43
2018-12-14T14:27:01.739Z,19.80
2018-12-14T14:29:30.030Z,21.80
2018-12-14T14:31:58.394Z,23.83
2018-12-14T14:34:26.694Z,21.10
2018-12-14T14:36:58.088Z,18.77
2018-12-14T14:39:26.435Z,17.80
2018-12-14T14:41:54.855Z,18.67
2018-12-14T14:44:23.287Z,16.47
2018-12-14T14:46:51.569Z,21.17
2018-12-14T14:49:20.016Z,18.33
2018-12-14T14:51:48.720Z,14.40
2018-12-14T14:54:17.164Z,19.93
2018-12-14T14:56:45.505Z,18.53
2018-12-14T14:59:13.852Z,17.47
2018-12-14T15:01:42.173Z,17.27
2018-12-14T15:04:10.565Z,15.47
2018-12-14T15:06:38.997Z,19.07
2018-12-14T15:09:08.835Z,18.23
2018-12-14T15:11:37.226Z,15.43
2018-12-14T15:14:05.708Z,15.83
2018-12-14T15:16:34.070Z,16.57
2018-12-14T15:19:02.591Z,17.57
2018-12-14T15:21:31.017Z,14.93
2018-12-14T15:23:59.409Z,14.70
2018-12-14T15:26:27.670Z,14.40
2018-12-14T15:28:55.976Z,18.87
2018-12-14T15:31:24.333Z,16.30
2018-12-14T15:33:52.619Z,14.07
2018-12-14T15:36:21.080Z,14.37
2018-12-14T15:38:49.376Z,13.93
2018-12-14T15:41:17.742Z,15.37
2018-12-14T15:43:46.278Z,15.00
2018-12-14T15:46:14.701Z,12.47
2018-12-14T15:48:42.989Z,14.80
2018-12-14T15:51:11.279Z,11.90
2018-12-14T15:53:39.582Z,13.60
2018-12-14T15:56:08.289Z,11.57
2018-12-14T15:58:36.662Z,12.73
2018-12-14T16:01:04.995Z,15.67
2018-12-14T16:03:34.263Z,12.40
2018-12-14T16:06:02.606Z,15.07
2018-12-14T16:08:30.967Z,16.53
2018-12-14T16:10:59.318Z,18.33
2018-12-14T16:13:27.752Z,13.53
2018-12-14T16:15:56.207Z,13.77
2018-12-14T16:18:24.744Z,14.90
2018-12-14T16:20:53.188Z,12.10
2018-12-14T16:23:21.538Z,12.63
2018-12-14T16:25:50.047Z,14.40
2018-12-14T16:28:18.471Z,14.23
2018-12-14T16:30:46.774Z,18.70
2018-12-14T16:33:15.255Z,14.07
2018-12-14T16:35:43.725Z,11.80
2018-12-14T16:38:12.030Z,15.03
2018-12-14T16:40:40.390Z,13.03
2018-12-14T16:43:08.964Z,10.73
2018-12-14T16:45:37.391Z,10.67
2018-12-14T16:48:05.843Z,13.47
2018-12-14T16:50:34.242Z,11.70
2018-12-14T16:53:02.823Z,10.80
2018-12-14T16:55:31.257Z,11.53
2018-12-14T16:57:59.558Z,11.80
2018-12-14T17:00:27.934Z,11.63
2018-12-14T17:02:56.516Z,11.70
2018-12-14T17:05:24.935Z,11.30
2018-12-14T17:07:53.311Z,11.17
2018-12-14T17:10:21.688Z,10.93
2018-12-14T17:12:50.035Z,9.43
2018-12-14T17:15:18.356Z,9.47
2018-12-14T17:17:46.694Z,13.17
2018-12-14T17:20:15.076Z,11.70
2018-12-14T17:22:43.499Z,8.10
2018-12-14T17:25:12.831Z,9.27
2018-12-14T17:27:41.248Z,9.47
2018-12-14T17:30:09.793Z,9.13
2018-12-14T17:32:38.086Z,10.80
2018-12-14T17:35:06.704Z,10.83
2018-12-14T17:37:35.043Z,9.27
2018-12-14T17:40:03.451Z,11.83
2018-12-14T17:42:31.942Z,12.40
2018-12-14T17:45:00.227Z,13.53
2018-12-14T17:47:28.595Z,11.50
2018-12-14T17:49:57.056Z,16.17
2018-12-14T17:52:25.449Z,12.97
2018-12-14T17:54:53.842Z,12.23
2018-12-14T17:57:22.201Z,11.20
2018-12-14T17:59:50.573Z,9.03
2018-12-14T18:02:18.837Z,10.10
2018-12-14T18:04:47.169Z,10.50
2018-12-14T18:07:16.521Z,10.30
2018-12-14T18:09:44.853Z,11.17
2018-12-14T18:12:13.165Z,10.43
2018-12-14T18:14:41.630Z,11.50
2018-12-14T18:17:09.930Z,10.40
2018-12-14T18:19:38.227Z,9.10
2018-12-14T18:22:06.689Z,8.83
2018-12-14T18:24:35.214Z,12.53
2018-12-14T18:27:04.662Z,12.57
2018-12-14T18:29:33.874Z,10.53
2018-12-14T18:32:02.162Z,12.90
2018-12-14T18:34:30.556Z,10.03
2018-12-14T18:36:58.949Z,9.60
2018-12-14T18:39:27.308Z,10.73
2018-12-14T18:41:55.688Z,11.90
2018-12-14T18:44:23.967Z,11.83
2018-12-14T18:46:52.300Z,12.30
2018-12-14T18:49:20.650Z,11.60
2018-12-14T18:51:48.965Z,11.60
2018-12-14T18:54:17.272Z,8.43
2018-12-14T18:56:45.664Z,12.13
2018-12-14T18:59:14.374Z,17.13
2018-12-14T19:01:43.210Z,29.83
2018-12-14T19:04:11.718Z,34.30
2018-12-14T19:06:40.154Z,30.67
2018-12-14T19:09:08.732Z,24.73
2018-12-14T19:11:37.186Z,18.97
2018-12-14T19:14:05.823Z,22.33
2018-12-14T19:16:34.131Z,19.60
2018-12-14T19:19:02.499Z,19.93
2018-12-14T19:21:30.898Z,19.77
2018-12-14T19:23:59.256Z,15.77
2018-12-14T19:26:27.641Z,22.63
2018-12-14T19:28:56.158Z,21.97
2018-12-14T19:31:24.518Z,18.47
2018-12-14T19:33:52.905Z,15.07
2018-12-14T19:36:21.254Z,17.20
2018-12-14T19:38:49.634Z,14.27
2018-12-14T19:41:18.030Z,15.13
2018-12-14T19:43:46.425Z,22.73
2018-12-14T19:46:14.767Z,23.13
2018-12-14T19:48:43.239Z,22.90
2018-12-14T19:51:11.642Z,18.10
2018-12-14T19:53:40.340Z,21.07
2018-12-14T19:56:08.734Z,19.77
2018-12-14T19:58:37.053Z,17.33
2018-12-14T20:01:05.349Z,19.10
2018-12-14T20:03:33.727Z,19.23
2018-12-14T20:06:02.116Z,19.50
2018-12-14T20:08:31.512Z,16.13
2018-12-14T20:10:59.893Z,17.77
2018-12-14T20:13:28.409Z,18.87
2018-12-14T20:15:57.722Z,19.83
2018-12-14T20:18:26.330Z,18.90
2018-12-14T20:20:54.678Z,17.50
2018-12-14T20:23:23.032Z,18.77
2018-12-14T20:25:51.392Z,17.43
2018-12-14T20:28:19.823Z,16.80
2018-12-14T20:30:48.272Z,12.60
2018-12-14T20:33:16.639Z,17.20
2018-12-14T20:35:45.042Z,13.27
2018-12-14T20:38:13.474Z,13.17
2018-12-14T20:40:41.814Z,12.77
2018-12-14T20:43:10.152Z,13.83
2018-12-14T20:45:38.423Z,14.10
2018-12-14T20:48:06.805Z,14.70
2018-12-14T20:50:35.191Z,12.23
2018-12-14T20:53:03.642Z,9.40
2018-12-14T20:55:31.938Z,10.27
2018-12-14T20:58:00.330Z,14.37
2018-12-14T21:00:28.671Z,15.60
2018-12-14T21:02:56.951Z,14.50
2018-12-14T21:05:25.398Z,11.87
2018-12-14T21:07:53.757Z,14.13
2018-12-14T21:10:22.250Z,17.27
2018-12-14T21:12:50.584Z,13.37
2018-12-14T21:15:18.993Z,15.37
2018-12-14T21:17:47.408Z,15.37
2018-12-14T21:20:15.796Z,14.93
2018-12-14T21:22:45.004Z,11.37
2018-12-14T21:25:13.417Z,15.20
2018-12-14T21:27:42.051Z,15.03
2018-12-14T21:30:10.616Z,13.30
2018-12-14T21:32:38.932Z,14.73
2018-12-14T21:35:07.464Z,15.73
2018-12-14T21:37:35.828Z,12.90
2018-12-14T21:40:04.660Z,12.23
2018-12-14T21:42:34.349Z,18.07
2018-12-14T21:45:03.231Z,16.87
2018-12-14T21:47:31.609Z,23.83
2018-12-14T21:50:00.045Z,16.73
2018-12-14T21:52:29.380Z,16.07
2018-12-14T21:54:57.755Z,23.30
2018-12-14T21:57:26.130Z,16.73
2018-12-14T21:59:54.517Z,63.80
2018-12-14T22:02:22.877Z,27.23
2018-12-14T22:04:52.668Z,14.53
2018-12-14T22:07:20.998Z,11.93
2018-12-14T22:09:49.326Z,8.00
2018-12-14T22:12:17.623Z,8.80
2018-12-14T22:14:45.999Z,8.63
2018-12-14T22:17:14.326Z,10.33
2018-12-14T22:19:45.674Z,8.87
2018-12-14T22:22:13.992Z,9.30
2018-12-14T22:24:42.409Z,8.67
2018-12-14T22:27:10.881Z,9.33
2018-12-14T22:29:39.287Z,10.00
2018-12-14T22:32:07.632Z,7.50
2018-12-14T22:34:36.030Z,8.83
2018-12-14T22:37:04.306Z,8.83
2018-12-14T22:39:32.975Z,9.33
2018-12-14T22:42:08.295Z,8.20
2018-12-14T22:44:36.688Z,9.57
2018-12-14T22:47:05.098Z,9.60
2018-12-14T22:49:33.522Z,10.13
2018-12-14T22:52:01.930Z,8.53
2018-12-14T22:54:30.379Z,11.53
2018-12-14T22:56:58.781Z,9.00
2018-12-14T22:59:27.142Z,11.47
2018-12-14T23:01:55.466Z,9.90
2018-12-14T23:04:23.878Z,7.80
2018-12-14T23:06:52.222Z,11.13
2018-12-14T23:09:20.613Z,10.93
2018-12-14T23:11:48.959Z,8.23
2018-12-14T23:14:23.950Z,13.00
2018-12-14T23:16:52.527Z,13.07
2018-12-14T23:19:21.099Z,14.43
2018-12-14T23:21:51.524Z,13.20
2018-12-14T23:24:19.847Z,9.53
2018-12-14T23:26:48.123Z,9.77
2018-12-14T23:29:16.416Z,9.63
2018-12-14T23:31:45.000Z,10.03
2018-12-14T23:34:13.388Z,12.37
2018-12-14T23:36:41.840Z,13.97
2018-12-14T23:39:10.115Z,14.17
2018-12-14T23:41:38.425Z,17.90
2018-12-14T23:44:06.791Z,14.00
2018-12-14T23:46:35.082Z,12.73
2018-12-14T23:49:03.488Z,23.03
2018-12-14T23:51:31.866Z,17.40
2018-12-14T23:54:00.219Z,19.73
2018-12-14T23:56:28.645Z,14.03
2018-12-14T23:58:57.829Z,13.10
